Aeroporto :
LOGIN :

Iscrizione | Disclaimer

   EN    FR    IT 

 










Sommario :    VFR   VFR Marginale   IFR   IFR Intensivo   IFR Molto Intensivo
Visibilità : 
Base nubi : 
>= 8 km
>= 3000ft
5 / 8 km
1000 / 3000 ft
1500m / 5 km
500 / 1000 ft
800 / 1500m
200 / 500 ft
< 800m
< 200 ft
Simboli :   Temporali  Nebbia  Neve Forte  Precipitazioni Forti  Vento > 20 kt
SIGMETs :   Varie  Temporali  Ghiacco  Turbolenza  Onda orograficha  Ceneri Vulcaniche






- Altitudine del aeroporto : 12 ft
- Codice IATA : CQF


LFAC - Calais

ULTIMO METAR :
  • 290630Z AUTO 02021KT 9999 FEW031 BKN038 BKN046 06/M01 Q1031

METARs OBSOLETI :
  • 290600Z AUTO 02021KT 9999 FEW041 BKN066 06/M02 Q1031
  • 290530Z AUTO 02024G36KT 9999 FEW038 OVC064 06/M03 Q1031
  • 290500Z AUTO 02020G32KT 9999 FEW040 BKN064 06/M04 Q1031
  • 290430Z AUTO 03022G35KT 9999 FEW039 BKN054 OVC064 06/M03 Q1031
  • 290400Z AUTO 03024G37KT 9999 FEW043 OVC056 06/M05 Q1031

TAF N/A
ATIS : +33 3 21 00 11 14



MetMap, La meteo Aeronautica in un colpo d'occhio ! - Copyright ORBIFLY Dicembre 2007 - Disclaimer

ORBIFLY MET'MAP TEAM :

Programmazione e sviluppo : Alexandra Zaïnal
Concezione : Baudouin d'Aumeries
Aiuto per la programmazione : Marc-Olivier Méhu
Supporto tecnico e logistico : Manuel Goepfert
Aiuto per la traduzione : Arnaldo La Scala

Contatto : metmap@orbifly.com




FONTI E CREDITI :

   NOAA